»·PEaware :: N351SS KSNA-KCRQ

N351SS :: KSNA-KCRQ

FLIGHT INFORMATION

Flight Status: Arrived
Operator: Privately registered:
United States
More flights under this callsign
Pilot: Reuben K. (13591)
Aircraft: CESSNA 206 STATIONAIR
(C206)
More flights by this aircraft type
Origin: KSNA John Wayne-Orange Co
United States
Destination: KCRQ McClellan-Palomar
United States
More flights between these airports :: More routes between these airports
Route: +V23 OCN
File this flight plan on PilotEdge
Remarks: I-2 rating
Altitude:
(Current/Filed)
5,000ft
Speed:
(Current/Filed)
140kts
Departed: 06-Feb-20 03:48 PM
Arrived: 06-Feb-20 04:28 PM
Distance/Time
Traveled:
44nm/0:40
Distance/Time
To Go:
Arrived

Flight Plot

Page will automatically refresh every two minutes.


Map Options




Map Legend


Flown Route
Filed Route
Departure Airport
Arrival Airport
Navaid (VOR, NDB)
Fix

Horizontal Profiles

Position Reports

Time Latitude Longitude Heading Altitude Ground
Speed
06-Feb-20 14:50 33.676080 -117.870909 219 60ft 0kts
06-Feb-20 14:51 33.676080 -117.870909 219 60ft 0kts
06-Feb-20 14:52 33.676080 -117.870909 219 60ft 0kts
06-Feb-20 14:53 33.676009 -117.870839 122 60ft 0kts
06-Feb-20 14:54 33.676009 -117.870839 122 60ft 0kts
06-Feb-20 14:55 33.676009 -117.870839 122 60ft 0kts
06-Feb-20 14:56 33.676009 -117.870839 122 60ft 0kts
06-Feb-20 14:57 33.676009 -117.870839 122 60ft 0kts
06-Feb-20 14:58 33.676009 -117.870839 122 60ft 0kts
06-Feb-20 14:59 33.676009 -117.870839 122 60ft 0kts
06-Feb-20 15:00 33.676009 -117.870839 122 60ft 0kts
06-Feb-20 15:01 33.676009 -117.870839 122 60ft 0kts
06-Feb-20 15:02 33.676009 -117.870839 122 60ft 0kts
06-Feb-20 15:03 33.676009 -117.870839 122 60ft 0kts
06-Feb-20 15:04 33.676009 -117.870839 122 60ft 0kts
06-Feb-20 15:05 33.676009 -117.870839 122 60ft 0kts
06-Feb-20 15:06 33.676009 -117.870839 122 60ft 0kts
06-Feb-20 15:07 33.676009 -117.870839 122 60ft 0kts
06-Feb-20 15:08 33.676009 -117.870839 122 60ft 0kts
06-Feb-20 15:09 33.676009 -117.870839 122 60ft 0kts
06-Feb-20 15:10 33.676009 -117.870839 122 60ft 0kts
06-Feb-20 15:11 33.676009 -117.870839 122 60ft 0kts
06-Feb-20 15:12 33.676009 -117.870839 122 60ft 0kts
06-Feb-20 15:13 33.676009 -117.870839 122 60ft 0kts
06-Feb-20 15:14 33.676009 -117.870839 122 60ft 0kts
06-Feb-20 15:15 33.675984 -117.870793 122 60ft 0kts
06-Feb-20 15:16 33.675928 -117.870685 121 60ft 0kts
06-Feb-20 15:17 33.675961 -117.870946 136 60ft 0kts
06-Feb-20 15:18 33.675961 -117.870946 136 60ft 0kts
06-Feb-20 15:19 33.675961 -117.870946 136 60ft 0kts
06-Feb-20 15:20 33.675961 -117.870946 136 60ft 0kts
06-Feb-20 15:21 33.675961 -117.870946 136 60ft 0kts
06-Feb-20 15:22 33.675961 -117.870946 136 60ft 0kts
06-Feb-20 15:23 33.675961 -117.870946 136 60ft 0kts
06-Feb-20 15:24 33.675961 -117.870946 136 60ft 0kts
06-Feb-20 15:25 33.675961 -117.870946 136 60ft 0kts
06-Feb-20 15:26 33.675961 -117.870946 136 60ft 0kts
06-Feb-20 15:27 33.675961 -117.870946 136 60ft 0kts
06-Feb-20 15:28 33.675961 -117.870946 136 60ft 0kts
06-Feb-20 15:29 33.675961 -117.870946 136 60ft 0kts
06-Feb-20 15:30 33.675961 -117.870946 136 60ft 0kts
06-Feb-20 15:31 33.675961 -117.870946 136 60ft 0kts
06-Feb-20 15:32 33.675961 -117.870946 136 60ft 0kts
06-Feb-20 15:33 33.675961 -117.870946 136 60ft 0kts
06-Feb-20 15:34 33.675961 -117.870946 136 60ft 0kts
06-Feb-20 15:35 33.675961 -117.870946 136 60ft 0kts
06-Feb-20 15:36 33.675961 -117.870946 136 60ft 0kts
06-Feb-20 15:37 33.675961 -117.870946 136 60ft 0kts
06-Feb-20 15:38 33.675961 -117.870946 136 60ft 0kts
06-Feb-20 15:39 33.675961 -117.870946 136 60ft 0kts
06-Feb-20 15:40 33.675961 -117.870946 136 60ft 0kts
06-Feb-20 15:41 33.675961 -117.870945 136 60ft 0kts
06-Feb-20 15:42 33.677767 -117.869024 35 60ft 8kts
06-Feb-20 15:43 33.679825 -117.867856 22 60ft 13kts
06-Feb-20 15:44 33.681234 -117.866525 118 60ft 0kts
06-Feb-20 15:45 33.681234 -117.866525 118 60ft 0kts
06-Feb-20 15:46 33.681234 -117.866525 118 60ft 0kts
06-Feb-20 15:47 33.671914 -117.870842 202 440ft 82kts
06-Feb-20 15:48 33.645516 -117.874183 184 1818ft 100kts
06-Feb-20 15:49 33.616628 -117.875583 186 2684ft 109kts
06-Feb-20 15:50 33.585974 -117.876615 185 3190ft 111kts
06-Feb-20 15:51 33.555119 -117.877225 186 3710ft 111kts
06-Feb-20 15:52 33.523298 -117.877368 185 4201ft 112kts
06-Feb-20 15:53 33.491797 -117.877447 186 4614ft 115kts
06-Feb-20 15:54 33.466400 -117.860402 102 4951ft 133kts
06-Feb-20 15:55 33.460455 -117.816735 100 4981ft 130kts
06-Feb-20 15:56 33.454787 -117.774214 101 5014ft 130kts
06-Feb-20 15:57 33.448513 -117.731127 100 5017ft 131kts
06-Feb-20 15:58 33.441726 -117.687968 100 5021ft 132kts
06-Feb-20 15:59 33.434655 -117.644752 100 5024ft 132kts
06-Feb-20 16:00 33.415753 -117.608458 134 5027ft 130kts
06-Feb-20 16:01 33.391239 -117.576112 136 5027ft 131kts
06-Feb-20 16:02 33.365391 -117.545489 136 5024ft 131kts
06-Feb-20 16:03 33.339151 -117.515145 138 5026ft 131kts
06-Feb-20 16:04 33.313049 -117.484728 140 5011ft 130kts
06-Feb-20 16:05 33.286514 -117.455697 140 5008ft 129kts
06-Feb-20 16:06 33.260526 -117.426245 121 5005ft 130kts
06-Feb-20 16:07 33.257772 -117.383369 90 5003ft 130kts
06-Feb-20 16:08 33.257006 -117.340170 91 4999ft 129kts
06-Feb-20 16:09 33.256128 -117.297561 91 4999ft 127kts
06-Feb-20 16:10 33.255015 -117.255238 91 4999ft 127kts
06-Feb-20 16:11 33.253656 -117.212911 91 4999ft 127kts
06-Feb-20 16:12 33.252059 -117.170700 91 4999ft 127kts
06-Feb-20 16:13 33.250224 -117.128510 90 5000ft 127kts
06-Feb-20 16:14 33.248178 -117.086329 90 4999ft 127kts
06-Feb-20 16:15 33.245992 -117.044096 90 4997ft 127kts
06-Feb-20 16:16 33.221036 -117.020113 171 4729ft 141kts
06-Feb-20 16:17 33.180881 -117.009497 171 4140ft 151kts
06-Feb-20 16:18 33.151003 -117.019824 274 3995ft 114kts
06-Feb-20 16:20 33.155641 -117.056148 280 3997ft 107kts
06-Feb-20 16:21 33.160700 -117.088792 258 3795ft 104kts
06-Feb-20 16:22 33.152453 -117.121856 260 3438ft 100kts
06-Feb-20 16:23 33.148282 -117.153537 261 2657ft 95kts
06-Feb-20 16:24 33.143498 -117.183175 262 1965ft 84kts
06-Feb-20 16:25 33.139122 -117.211032 261 1550ft 89kts
06-Feb-20 16:26 33.134553 -117.242756 258 873ft 101kts
06-Feb-20 16:27 33.129349 -117.273115 259 343ft 63kts
06-Feb-20 16:28 33.127556 -117.279576 171 335ft 0kts
06-Feb-20 16:29 33.127259 -117.279489 144 335ft 9kts
06-Feb-20 16:30 33.126506 -117.278321 344 335ft 0kts
06-Feb-20 16:31 33.126506 -117.278321 344 335ft 0kts
06-Feb-20 16:32 33.126506 -117.278321 344 335ft 0kts
06-Feb-20 16:33 33.126506 -117.278321 344 335ft 0kts
06-Feb-20 16:34 33.126506 -117.278321 344 335ft 0kts
06-Feb-20 16:35 33.126506 -117.278321 344 335ft 0kts
06-Feb-20 16:35 33.126506 -117.278321 344 335ft 0kts
06-Feb-20 16:37 33.126506 -117.278321 344 335ft 0kts
06-Feb-20 16:38 33.126506 -117.278321 344 335ft 0kts
06-Feb-20 16:38 33.126506 -117.278321 344 335ft 0kts
06-Feb-20 16:40 33.126506 -117.278321 344 335ft 0kts
06-Feb-20 16:41 33.126506 -117.278321 344 335ft 0kts
06-Feb-20 16:41 33.126506 -117.278321 344 335ft 0kts

Navigation Log

Ident Type
Flight plan parsing failed, navigation log unavailable